createdAt,value
2018-04-20T00:00:58.613Z,1022.37
2018-04-20T00:01:58.623Z,1022.34
2018-04-20T00:02:58.633Z,1022.32
2018-04-20T00:03:58.652Z,1022.38
2018-04-20T00:04:58.674Z,1022.34
2018-04-20T00:05:58.711Z,1022.32
2018-04-20T00:06:58.717Z,1022.32
2018-04-20T00:07:58.739Z,1022.29
2018-04-20T00:08:58.759Z,1022.30
2018-04-20T00:09:58.780Z,1022.27
2018-04-20T00:10:58.802Z,1022.24
2018-04-20T00:11:58.834Z,1022.25
2018-04-20T00:12:58.846Z,1022.25
2018-04-20T00:13:58.866Z,1022.24
2018-04-20T00:14:58.888Z,1022.24
2018-04-20T00:15:58.910Z,1022.23
2018-04-20T00:16:58.930Z,1022.16
2018-04-20T00:17:58.952Z,1022.18
2018-04-20T00:18:58.973Z,1022.21
2018-04-20T00:19:58.995Z,1022.21
2018-04-20T00:20:59.017Z,1022.17
2018-04-20T00:21:59.037Z,1022.19
2018-04-20T00:22:59.059Z,1022.17
2018-04-20T00:23:59.080Z,1022.16
2018-04-20T00:24:59.104Z,1022.16
2018-04-20T00:25:59.123Z,1022.14
2018-04-20T00:26:59.144Z,1022.13
2018-04-20T00:27:59.166Z,1022.13
2018-04-20T00:28:59.187Z,1022.13
2018-04-20T00:29:59.209Z,1022.09
2018-04-20T00:30:59.219Z,1022.10
2018-04-20T00:31:59.239Z,1022.12
2018-04-20T00:32:59.261Z,1022.07
2018-04-20T00:33:59.285Z,1022.10
2018-04-20T00:34:59.302Z,1022.06
2018-04-20T00:35:59.324Z,1022.08
2018-04-20T00:36:59.349Z,1022.04
2018-04-20T00:37:59.367Z,1022.02
2018-04-20T00:38:59.387Z,1022.02
2018-04-20T00:39:59.422Z,1022.02
2018-04-20T00:40:59.430Z,1022.00
2018-04-20T00:41:59.455Z,1021.95
2018-04-20T00:42:59.481Z,1021.95
2018-04-20T00:43:59.497Z,1021.92
2018-04-20T00:44:59.516Z,1021.91
2018-04-20T00:45:59.537Z,1021.86
2018-04-20T00:46:59.559Z,1021.88
2018-04-20T00:47:59.583Z,1021.86
2018-04-20T00:48:59.615Z,1021.84
2018-04-20T00:49:59.627Z,1021.84
2018-04-20T00:50:59.633Z,1021.84
2018-04-20T00:51:59.655Z,1021.81
2018-04-20T00:52:59.675Z,1021.83
2018-04-20T00:53:59.700Z,1021.82
2018-04-20T00:54:59.717Z,1021.77
2018-04-20T00:55:59.740Z,1021.78
2018-04-20T00:56:59.762Z,1021.81
2018-04-20T00:57:59.782Z,1021.79
2018-04-20T00:58:59.803Z,1021.76
2018-04-20T00:59:59.825Z,1021.75
2018-04-20T01:00:59.847Z,1021.76
2018-04-20T01:01:59.867Z,1021.76
2018-04-20T01:02:59.893Z,1021.74
2018-04-20T01:03:59.911Z,1021.76
2018-04-20T01:04:59.921Z,1021.74
2018-04-20T01:05:59.942Z,1021.75
2018-04-20T01:06:59.962Z,1021.76
2018-04-20T01:07:59.983Z,1021.74
2018-04-20T01:09:00.004Z,1021.71
2018-04-20T01:10:00.026Z,1021.68
2018-04-20T01:11:00.061Z,1021.71
2018-04-20T01:12:00.067Z,1021.69
2018-04-20T01:13:00.090Z,1021.71
2018-04-20T01:14:00.110Z,1021.73
2018-04-20T01:15:00.132Z,1021.68
2018-04-20T01:16:00.152Z,1021.71
2018-04-20T01:17:00.163Z,1021.70
2018-04-20T01:18:00.184Z,1021.72
2018-04-20T01:19:00.205Z,1021.74
2018-04-20T01:20:00.226Z,1021.72
2018-04-20T01:21:00.250Z,1021.70
2018-04-20T01:22:00.268Z,1021.70
2018-04-20T01:23:00.290Z,1021.74
2018-04-20T01:24:00.311Z,1021.71
2018-04-20T01:25:00.333Z,1021.70
2018-04-20T01:26:00.354Z,1021.74
2018-04-20T01:27:00.376Z,1021.71
2018-04-20T01:28:00.385Z,1021.70
2018-04-20T01:29:00.405Z,1021.65
2018-04-20T01:30:00.488Z,1021.64
2018-04-20T01:31:00.447Z,1021.63
2018-04-20T01:32:00.469Z,1021.64
2018-04-20T01:33:00.491Z,1021.64
2018-04-20T01:34:00.515Z,1021.63
2018-04-20T01:35:00.533Z,1021.58
2018-04-20T01:36:00.554Z,1021.59
2018-04-20T01:37:00.575Z,1021.60
2018-04-20T01:38:00.597Z,1021.61
2018-04-20T01:39:00.607Z,1021.56
2018-04-20T01:40:00.628Z,1021.62
2018-04-20T01:41:00.648Z,1021.62
2018-04-20T01:42:00.671Z,1021.61
2018-04-20T01:43:00.692Z,1021.60
2018-04-20T01:44:00.714Z,1021.61
2018-04-20T01:45:00.734Z,1021.59
2018-04-20T01:46:00.764Z,1021.60
2018-04-20T01:47:00.777Z,1021.61
2018-04-20T01:48:00.787Z,1021.58
2018-04-20T01:49:00.806Z,1021.57
2018-04-20T01:50:00.828Z,1021.54
2018-04-20T01:51:00.864Z,1021.59
2018-04-20T01:52:00.873Z,1021.54
2018-04-20T01:53:00.891Z,1021.56
2018-04-20T01:54:00.913Z,1021.51
2018-04-20T01:55:00.934Z,1021.50
2018-04-20T01:56:00.955Z,1021.50
2018-04-20T01:57:00.978Z,1021.49
2018-04-20T01:58:00.987Z,1021.48
2018-04-20T01:59:01.008Z,1021.49
2018-04-20T02:00:01.029Z,1021.46
2018-04-20T02:01:01.055Z,1021.51
2018-04-20T02:02:01.072Z,1021.50
2018-04-20T02:03:01.094Z,1021.49
2018-04-20T02:04:01.115Z,1021.53
2018-04-20T02:05:01.141Z,1021.48
2018-04-20T02:06:01.158Z,1021.50
2018-04-20T02:07:01.167Z,1021.48
2018-04-20T02:08:01.188Z,1021.50
2018-04-20T02:09:01.209Z,1021.46
2018-04-20T02:10:01.233Z,1021.45
2018-04-20T02:11:01.253Z,1021.47
2018-04-20T02:12:01.296Z,1021.45
2018-04-20T02:13:01.310Z,1021.42
2018-04-20T02:14:01.317Z,1021.42
2018-04-20T02:15:01.327Z,1021.41
2018-04-20T02:16:01.349Z,1021.45
2018-04-20T02:17:01.372Z,1021.40
2018-04-20T02:18:01.392Z,1021.41
2018-04-20T02:19:01.413Z,1021.45
2018-04-20T02:20:01.450Z,1021.38
2018-04-20T02:21:01.456Z,1021.33
2018-04-20T02:22:01.491Z,1021.35
2018-04-20T02:23:01.498Z,1021.32
2018-04-20T02:24:01.508Z,1021.34
2018-04-20T02:25:01.534Z,1021.34
2018-04-20T02:26:01.549Z,1021.31
2018-04-20T02:27:01.574Z,1021.29
2018-04-20T02:28:01.595Z,1021.30
2018-04-20T02:29:01.614Z,1021.29
2018-04-20T02:30:01.637Z,1021.31
2018-04-20T02:31:01.683Z,1021.29
2018-04-20T02:32:01.667Z,1021.34
2018-04-20T02:33:01.688Z,1021.34
2018-04-20T02:34:01.722Z,1021.29
2018-04-20T02:35:01.731Z,1021.28
2018-04-20T02:36:01.756Z,1021.26
2018-04-20T02:37:01.776Z,1021.28
2018-04-20T02:38:01.800Z,1021.26
2018-04-20T02:39:01.816Z,1021.29
2018-04-20T02:40:01.825Z,1021.25
2018-04-20T02:41:01.846Z,1021.27
2018-04-20T02:42:01.875Z,1021.26
2018-04-20T02:43:01.888Z,1021.25
2018-04-20T02:44:01.923Z,1021.26
2018-04-20T02:45:01.935Z,1021.26
2018-04-20T02:46:01.953Z,1021.26
2018-04-20T02:47:01.965Z,1021.22
2018-04-20T02:48:01.985Z,1021.20
2018-04-20T02:49:02.014Z,1021.20
2018-04-20T02:50:02.027Z,1021.22
2018-04-20T02:51:02.050Z,1021.24
2018-04-20T02:52:02.070Z,1021.18
2018-04-20T02:53:02.092Z,1021.22
2018-04-20T02:54:02.114Z,1021.24
2018-04-20T02:55:02.129Z,1021.24
2018-04-20T02:56:02.142Z,1021.24
2018-04-20T02:57:02.177Z,1021.23
2018-04-20T02:58:02.190Z,1021.24
2018-04-20T02:59:02.209Z,1021.19
2018-04-20T03:00:02.229Z,1021.24
2018-04-20T03:01:02.250Z,1021.19
2018-04-20T03:02:02.271Z,1021.21
2018-04-20T03:03:02.279Z,1021.24
2018-04-20T03:04:02.305Z,1021.24
2018-04-20T03:05:02.322Z,1021.23
2018-04-20T03:06:02.351Z,1021.22
2018-04-20T03:07:02.366Z,1021.20
2018-04-20T03:08:02.386Z,1021.18
2018-04-20T03:09:02.411Z,1021.21
2018-04-20T03:10:02.418Z,1021.23
2018-04-20T03:11:02.439Z,1021.16
2018-04-20T03:12:02.459Z,1021.20
2018-04-20T03:13:02.483Z,1021.19
2018-04-20T03:14:02.501Z,1021.17
2018-04-20T03:15:02.523Z,1021.16
2018-04-20T03:16:02.544Z,1021.13
2018-04-20T03:17:02.554Z,1021.17
2018-04-20T03:18:02.576Z,1021.17
2018-04-20T03:19:02.599Z,1021.12
2018-04-20T03:20:02.618Z,1021.11
2018-04-20T03:21:02.639Z,1021.09
2018-04-20T03:22:02.663Z,1021.12
2018-04-20T03:23:02.671Z,1021.14
2018-04-20T03:24:02.691Z,1021.11
2018-04-20T03:25:02.712Z,1021.09
2018-04-20T03:26:02.733Z,1021.13
2018-04-20T03:27:02.765Z,1021.10
2018-04-20T03:28:02.790Z,1021.07
2018-04-20T03:29:02.799Z,1021.10
2018-04-20T03:30:02.820Z,1021.09
2018-04-20T03:31:03.130Z,1021.12
2018-04-20T03:32:02.850Z,1021.10
2018-04-20T03:33:02.872Z,1021.07
2018-04-20T03:34:02.893Z,1021.09
2018-04-20T03:35:02.915Z,1021.09
2018-04-20T03:36:03.186Z,1021.09
2018-04-20T03:37:02.946Z,1021.13
2018-04-20T03:38:02.966Z,1021.11
2018-04-20T03:39:02.987Z,1021.09
2018-04-20T03:40:03.009Z,1021.11
2018-04-20T03:41:03.044Z,1021.11
2018-04-20T03:42:03.052Z,1021.11
2018-04-20T03:43:03.075Z,1021.11
2018-04-20T03:44:03.082Z,1021.11
2018-04-20T03:45:03.103Z,1021.14
2018-04-20T03:46:03.128Z,1021.14
2018-04-20T03:47:03.147Z,1021.10
2018-04-20T03:48:03.169Z,1021.16
2018-04-20T03:49:03.190Z,1021.15
2018-04-20T03:50:03.211Z,1021.14
2018-04-20T03:51:03.219Z,1021.12
2018-04-20T03:52:03.240Z,1021.16
2018-04-20T03:53:03.261Z,1021.15
2018-04-20T03:54:03.288Z,1021.17
2018-04-20T03:55:03.305Z,1021.15
2018-04-20T03:56:03.325Z,1021.13
2018-04-20T03:57:03.335Z,1021.14
2018-04-20T03:58:03.357Z,1021.13
2018-04-20T03:59:03.379Z,1021.15
2018-04-20T04:00:03.400Z,1021.15
2018-04-20T04:01:03.424Z,1021.12
2018-04-20T04:02:03.442Z,1021.13
2018-04-20T04:03:03.522Z,1021.12
2018-04-20T04:04:03.472Z,1021.07
2018-04-20T04:05:03.492Z,1021.14
2018-04-20T04:06:03.514Z,1021.13
2018-04-20T04:07:03.535Z,1021.11
2018-04-20T04:08:03.556Z,1021.15
2018-04-20T04:09:03.583Z,1021.14
2018-04-20T04:10:03.589Z,1021.11
2018-04-20T04:11:03.609Z,1021.11
2018-04-20T04:12:03.636Z,1021.13
2018-04-20T04:13:03.652Z,1021.14
2018-04-20T04:14:03.673Z,1021.09
2018-04-20T04:15:03.695Z,1021.09
2018-04-20T04:16:03.716Z,1021.11
2018-04-20T04:17:03.724Z,1021.10
2018-04-20T04:18:03.804Z,1021.10
2018-04-20T04:19:03.767Z,1021.09
2018-04-20T04:20:03.789Z,1021.09
2018-04-20T04:21:03.810Z,1021.10
2018-04-20T04:22:03.831Z,1021.04
2018-04-20T04:23:03.841Z,1021.11
2018-04-20T04:24:03.862Z,1021.12
2018-04-20T04:25:03.884Z,1021.08
2018-04-20T04:26:03.905Z,1021.10
2018-04-20T04:27:03.926Z,1021.08
2018-04-20T04:28:03.947Z,1021.09
2018-04-20T04:29:03.969Z,1021.10
2018-04-20T04:30:03.977Z,1021.07
2018-04-20T04:31:03.999Z,1021.08
2018-04-20T04:32:04.020Z,1021.11
2018-04-20T04:33:04.041Z,1021.08
2018-04-20T04:34:04.063Z,1021.05
2018-04-20T04:35:04.087Z,1021.09
2018-04-20T04:36:04.094Z,1021.08
2018-04-20T04:37:04.115Z,1021.10
2018-04-20T04:38:04.137Z,1021.12
2018-04-20T04:39:04.158Z,1021.10
2018-04-20T04:40:04.180Z,1021.10
2018-04-20T04:41:04.208Z,1021.11
2018-04-20T04:42:04.222Z,1021.13
2018-04-20T04:43:04.234Z,1021.11
2018-04-20T04:44:04.251Z,1021.08
2018-04-20T04:45:04.276Z,1021.11
2018-04-20T04:46:04.294Z,1021.12
2018-04-20T04:47:04.318Z,1021.12
2018-04-20T04:48:04.341Z,1021.11
2018-04-20T04:49:04.358Z,1021.14
2018-04-20T04:50:04.379Z,1021.12
2018-04-20T04:51:04.389Z,1021.11
2018-04-20T04:52:04.414Z,1021.12
2018-04-20T04:53:04.432Z,1021.13
2018-04-20T04:54:04.454Z,1021.09
2018-04-20T04:55:04.475Z,1021.16
2018-04-20T04:56:04.495Z,1021.12
2018-04-20T04:57:04.517Z,1021.11
2018-04-20T04:58:04.527Z,1021.14
2018-04-20T04:59:04.547Z,1021.16
2018-04-20T05:00:04.568Z,1021.18
2018-04-20T05:01:04.589Z,1021.18
2018-04-20T05:02:04.610Z,1021.14
2018-04-20T05:03:04.635Z,1021.15
2018-04-20T05:04:04.654Z,1021.18
2018-04-20T05:05:04.675Z,1021.18
2018-04-20T05:06:04.697Z,1021.18
2018-04-20T05:07:04.707Z,1021.13
2018-04-20T05:08:04.731Z,1021.16
2018-04-20T05:09:04.786Z,1021.17
2018-04-20T05:10:04.770Z,1021.13
2018-04-20T05:11:04.790Z,1021.11
2018-04-20T05:12:04.813Z,1021.12
2018-04-20T05:13:04.834Z,1021.15
2018-04-20T05:14:04.856Z,1021.09
2018-04-20T05:15:04.865Z,1021.11
2018-04-20T05:16:04.888Z,1021.12
2018-04-20T05:17:04.907Z,1021.11
2018-04-20T05:18:04.928Z,1021.10
2018-04-20T05:19:04.962Z,1021.07
2018-04-20T05:20:04.971Z,1021.11
2018-04-20T05:21:04.992Z,1021.07
2018-04-20T05:22:05.013Z,1021.05
2018-04-20T05:23:05.036Z,1021.11
2018-04-20T05:24:05.063Z,1021.09
2018-04-20T05:25:05.078Z,1021.07
2018-04-20T05:26:05.100Z,1021.10
2018-04-20T05:27:05.109Z,1021.10
2018-04-20T05:28:05.131Z,1021.06
2018-04-20T05:29:05.151Z,1021.02
2018-04-20T05:30:05.173Z,1021.05
2018-04-20T05:31:05.195Z,1021.04
2018-04-20T05:32:05.223Z,1021.07
2018-04-20T05:33:05.238Z,1021.02
2018-04-20T05:34:05.258Z,1021.02
2018-04-20T05:35:05.280Z,1021.00
2018-04-20T05:36:05.301Z,1020.98
2018-04-20T05:37:05.322Z,1021.00
2018-04-20T05:38:05.336Z,1020.99
2018-04-20T05:39:05.352Z,1020.99
2018-04-20T05:40:05.386Z,1020.97
2018-04-20T05:41:05.394Z,1020.94
2018-04-20T05:42:05.416Z,1020.96
2018-04-20T05:43:05.438Z,1020.95
2018-04-20T05:44:05.459Z,1020.95
2018-04-20T05:45:05.481Z,1020.90
2018-04-20T05:46:05.501Z,1020.94
2018-04-20T05:47:05.522Z,1020.95
2018-04-20T05:48:05.544Z,1020.92
2018-04-20T05:49:05.578Z,1020.93
2018-04-20T05:50:05.587Z,1020.86
2018-04-20T05:51:05.607Z,1020.89
2018-04-20T05:52:05.630Z,1020.92
2018-04-20T05:53:05.651Z,1020.92
2018-04-20T05:54:05.664Z,1020.91
2018-04-20T05:55:05.682Z,1020.89
2018-04-20T05:56:05.704Z,1020.87
2018-04-20T05:57:05.724Z,1020.94
2018-04-20T05:58:05.748Z,1020.94
2018-04-20T05:59:05.767Z,1020.90
2018-04-20T06:00:05.789Z,1020.91
2018-04-20T06:01:05.840Z,1020.89
2018-04-20T06:02:05.832Z,1020.89
2018-04-20T06:03:05.859Z,1020.93
2018-04-20T06:04:05.874Z,1020.86
2018-04-20T06:05:05.896Z,1020.89
2018-04-20T06:06:05.918Z,1020.83
2018-04-20T06:07:05.960Z,1020.85
2018-04-20T06:08:05.960Z,1020.88
2018-04-20T06:09:05.981Z,1020.92
2018-04-20T06:10:06.003Z,1020.91
2018-04-20T06:11:06.025Z,1020.90
2018-04-20T06:12:06.050Z,1020.91
2018-04-20T06:13:06.067Z,1020.86
2018-04-20T06:14:06.091Z,1020.80
2018-04-20T06:15:06.110Z,1020.84
2018-04-20T06:16:06.131Z,1020.82
2018-04-20T06:17:06.153Z,1020.86
2018-04-20T06:18:06.174Z,1020.85
2018-04-20T06:19:06.195Z,1020.80
2018-04-20T06:20:06.217Z,1020.83
2018-04-20T06:21:06.243Z,1020.84
2018-04-20T06:22:06.259Z,1020.81
2018-04-20T06:23:06.280Z,1020.80
2018-04-20T06:24:06.302Z,1020.81
2018-04-20T06:25:06.324Z,1020.79
2018-04-20T06:26:06.346Z,1020.78
2018-04-20T06:27:06.366Z,1020.79
2018-04-20T06:28:06.388Z,1020.76
2018-04-20T06:29:06.409Z,1020.75
2018-04-20T06:30:06.436Z,1020.74
2018-04-20T06:31:06.463Z,1020.73
2018-04-20T06:32:06.485Z,1020.73
2018-04-20T06:33:06.506Z,1020.69
2018-04-20T06:34:06.544Z,1020.74
2018-04-20T06:35:06.549Z,1020.70
2018-04-20T06:36:06.571Z,1020.71
2018-04-20T06:37:06.593Z,1020.68
2018-04-20T06:38:06.629Z,1020.66
2018-04-20T06:39:06.648Z,1020.64
2018-04-20T06:40:06.668Z,1020.67
2018-04-20T06:41:06.690Z,1020.66
2018-04-20T06:42:06.737Z,1020.66
2018-04-20T06:43:06.744Z,1020.63
2018-04-20T06:44:06.767Z,1020.61
2018-04-20T06:45:06.789Z,1020.62
2018-04-20T06:46:06.823Z,1020.62
2018-04-20T06:47:06.845Z,1020.59
2018-04-20T06:48:06.866Z,1020.61
2018-04-20T06:49:06.903Z,1020.58
2018-04-20T06:50:06.920Z,1020.59
2018-04-20T06:51:06.941Z,1020.59
2018-04-20T06:52:06.964Z,1020.58
2018-04-20T06:53:06.997Z,1020.55
2018-04-20T06:54:07.019Z,1020.56
2018-04-20T06:55:07.051Z,1020.59
2018-04-20T06:56:07.112Z,1020.56
2018-04-20T06:57:07.096Z,1020.56
2018-04-20T06:58:07.130Z,1020.54
2018-04-20T06:59:07.151Z,1020.54
2018-04-20T07:00:07.192Z,1020.55
2018-04-20T07:01:07.206Z,1020.57
2018-04-20T07:02:07.227Z,1020.55
2018-04-20T07:03:07.261Z,1020.53
2018-04-20T07:04:07.328Z,1020.55
2018-04-20T07:05:07.316Z,1020.51
2018-04-20T07:06:07.337Z,1020.56
2018-04-20T07:07:07.372Z,1020.52
2018-04-20T07:08:07.393Z,1020.51
2018-04-20T07:09:07.426Z,1020.51
2018-04-20T07:10:07.448Z,1020.51
2018-04-20T07:11:07.482Z,1020.49
2018-04-20T07:12:07.511Z,1020.54
2018-04-20T07:13:07.536Z,1020.53
2018-04-20T07:14:07.559Z,1020.54
2018-04-20T07:15:07.593Z,1020.49
2018-04-20T07:16:07.614Z,1020.47
2018-04-20T07:17:07.647Z,1020.48
2018-04-20T07:18:07.669Z,1020.50
2018-04-20T07:19:07.704Z,1020.49
2018-04-20T07:20:07.737Z,1020.47
2018-04-20T07:21:07.771Z,1020.43
2018-04-20T07:22:07.796Z,1020.44
2018-04-20T07:23:07.814Z,1020.41
2018-04-20T07:24:07.847Z,1020.45
2018-04-20T07:25:07.882Z,1020.45
2018-04-20T07:26:07.903Z,1020.45
2018-04-20T07:27:07.939Z,1020.42
2018-04-20T07:28:07.958Z,1020.40
2018-04-20T07:29:07.991Z,1020.39
2018-04-20T07:30:08.031Z,1020.40
2018-04-20T07:31:08.060Z,1020.41
2018-04-20T07:32:08.081Z,1020.40
2018-04-20T07:33:08.114Z,1020.40
2018-04-20T07:34:08.136Z,1020.40
2018-04-20T07:35:08.170Z,1020.45
2018-04-20T07:36:08.203Z,1020.42
2018-04-20T07:37:08.229Z,1020.43
2018-04-20T07:38:08.259Z,1020.39
2018-04-20T07:39:08.293Z,1020.40
2018-04-20T07:40:08.328Z,1020.42
2018-04-20T07:41:08.349Z,1020.42
2018-04-20T07:42:08.382Z,1020.37
2018-04-20T07:43:08.417Z,1020.37
2018-04-20T07:44:08.449Z,1020.37
2018-04-20T07:45:08.476Z,1020.34
2018-04-20T07:46:08.507Z,1020.34
2018-04-20T07:47:08.539Z,1020.32
2018-04-20T07:48:08.575Z,1020.33
2018-04-20T07:49:08.595Z,1020.31
2018-04-20T07:50:08.627Z,1020.30
2018-04-20T07:51:08.663Z,1020.31
2018-04-20T07:52:08.696Z,1020.25
2018-04-20T07:53:08.731Z,1020.26
2018-04-20T07:54:08.751Z,1020.22
2018-04-20T07:55:08.797Z,1020.22
2018-04-20T07:56:08.819Z,1020.20
2018-04-20T07:57:08.853Z,1020.22
2018-04-20T07:58:08.887Z,1020.22
2018-04-20T07:59:08.920Z,1020.14
2018-04-20T08:00:08.944Z,1020.14
2018-04-20T08:01:08.977Z,1020.14
2018-04-20T08:02:09.009Z,1020.10
2018-04-20T08:03:09.044Z,1020.14
2018-04-20T08:04:09.077Z,1020.09
2018-04-20T08:05:09.112Z,1020.13
2018-04-20T08:06:09.145Z,1020.10
2018-04-20T08:07:09.180Z,1020.11
2018-04-20T08:08:09.201Z,1020.13
2018-04-20T08:09:09.234Z,1020.14
2018-04-20T08:10:09.269Z,1020.16
2018-04-20T08:11:09.305Z,1020.13
2018-04-20T08:12:09.336Z,1020.07
2018-04-20T08:13:09.358Z,1020.07
2018-04-20T08:14:09.390Z,1020.03
2018-04-20T08:15:09.432Z,1020.06
2018-04-20T08:16:09.459Z,1020.07
2018-04-20T08:17:09.480Z,1020.09
2018-04-20T08:18:09.514Z,1020.08
2018-04-20T08:19:09.560Z,1020.07
2018-04-20T08:20:09.641Z,1020.09
2018-04-20T08:21:09.603Z,1020.05
2018-04-20T08:22:09.637Z,1020.05
2018-04-20T08:23:09.658Z,1020.05
2018-04-20T08:24:09.692Z,1020.04
2018-04-20T08:25:09.715Z,1020.01
2018-04-20T08:26:09.750Z,1020.05
2018-04-20T08:27:09.771Z,1020.05
2018-04-20T08:28:09.804Z,1020.04
2018-04-20T08:29:09.838Z,1020.05
2018-04-20T08:30:09.859Z,1020.03
2018-04-20T08:31:09.893Z,1020.01
2018-04-20T08:32:09.915Z,1020.03
2018-04-20T08:33:09.947Z,1019.98
2018-04-20T08:34:10.029Z,1019.97
2018-04-20T08:35:10.003Z,1020.00
2018-04-20T08:36:10.038Z,1019.97
2018-04-20T08:37:10.058Z,1019.96
2018-04-20T08:38:10.098Z,1019.95
2018-04-20T08:39:10.114Z,1019.95
2018-04-20T08:40:10.164Z,1019.93
2018-04-20T08:41:10.170Z,1019.97
2018-04-20T08:42:10.203Z,1019.92
2018-04-20T08:43:10.224Z,1019.89
2018-04-20T08:44:10.258Z,1019.88
2018-04-20T08:45:10.281Z,1019.88
2018-04-20T08:46:10.319Z,1019.83
2018-04-20T08:47:10.340Z,1019.85
2018-04-20T08:48:10.367Z,1019.85
2018-04-20T08:49:10.391Z,1019.82
2018-04-20T08:50:10.428Z,1019.84
2018-04-20T08:51:10.446Z,1019.80
2018-04-20T08:52:10.482Z,1019.83
2018-04-20T08:53:10.500Z,1019.79
2018-04-20T08:54:10.534Z,1019.80
2018-04-20T08:55:10.556Z,1019.77
2018-04-20T08:56:10.589Z,1019.78
2018-04-20T08:57:10.611Z,1019.76
2018-04-20T08:58:10.644Z,1019.75
2018-04-20T08:59:10.668Z,1019.70
2018-04-20T09:00:10.703Z,1019.72
2018-04-20T09:01:10.722Z,1019.70
2018-04-20T09:02:10.755Z,1019.70
2018-04-20T09:03:10.788Z,1019.66
2018-04-20T09:04:10.810Z,1019.69
2018-04-20T09:05:10.834Z,1019.65
2018-04-20T09:06:10.866Z,1019.67
2018-04-20T09:07:10.887Z,1019.62
2018-04-20T09:08:10.921Z,1019.66
2018-04-20T09:09:10.942Z,1019.64
2018-04-20T09:10:10.977Z,1019.62
2018-04-20T09:11:10.998Z,1019.61
2018-04-20T09:12:11.030Z,1019.60
2018-04-20T09:13:11.053Z,1019.58
2018-04-20T09:14:11.088Z,1019.59
2018-04-20T09:15:11.109Z,1019.56
2018-04-20T09:16:11.141Z,1019.58
2018-04-20T09:17:11.163Z,1019.57
2018-04-20T09:18:11.198Z,1019.57
2018-04-20T09:19:11.219Z,1019.57
2018-04-20T09:20:11.254Z,1019.51
2018-04-20T09:21:11.274Z,1019.56
2018-04-20T09:22:11.308Z,1019.54
2018-04-20T09:23:11.329Z,1019.49
2018-04-20T09:24:11.368Z,1019.53
2018-04-20T09:25:11.390Z,1019.50
2018-04-20T09:26:11.419Z,1019.48
2018-04-20T09:27:11.442Z,1019.48
2018-04-20T09:28:11.473Z,1019.47
2018-04-20T09:29:11.507Z,1019.50
2018-04-20T09:30:11.528Z,1019.50
2018-04-20T09:31:11.550Z,1019.44
2018-04-20T09:32:11.585Z,1019.39
2018-04-20T09:33:11.606Z,1019.43
2018-04-20T09:34:11.639Z,1019.35
2018-04-20T09:35:11.673Z,1019.39
2018-04-20T09:36:11.694Z,1019.32
2018-04-20T09:37:11.729Z,1019.38
2018-04-20T09:38:11.750Z,1019.38
2018-04-20T09:39:11.783Z,1019.42
2018-04-20T09:40:11.805Z,1019.35
2018-04-20T09:41:11.839Z,1019.31
2018-04-20T09:42:11.860Z,1019.34
2018-04-20T09:43:11.895Z,1019.33
2018-04-20T09:44:11.915Z,1019.32
2018-04-20T09:45:11.950Z,1019.31
2018-04-20T09:46:12.020Z,1019.31
2018-04-20T09:47:12.005Z,1019.30
2018-04-20T09:48:12.026Z,1019.28
2018-04-20T09:49:12.061Z,1019.32
2018-04-20T09:50:12.096Z,1019.25
2018-04-20T09:51:12.115Z,1019.26
2018-04-20T09:52:12.150Z,1019.24
2018-04-20T09:53:12.171Z,1019.23
2018-04-20T09:54:12.204Z,1019.19
2018-04-20T09:55:12.225Z,1019.23
2018-04-20T09:56:12.263Z,1019.23
2018-04-20T09:57:12.283Z,1019.24
2018-04-20T09:58:12.315Z,1019.18
2018-04-20T09:59:12.338Z,1019.18
2018-04-20T10:00:12.373Z,1019.15
2018-04-20T10:01:12.392Z,1019.13
2018-04-20T10:02:12.424Z,1019.13
2018-04-20T10:03:12.459Z,1019.15
2018-04-20T10:04:12.480Z,1019.12
2018-04-20T10:05:12.515Z,1019.12
2018-04-20T10:06:12.536Z,1019.11
2018-04-20T10:07:12.571Z,1019.07
2018-04-20T10:08:12.592Z,1019.09
2018-04-20T10:09:12.638Z,1019.05
2018-04-20T10:10:12.659Z,1019.05
2018-04-20T10:11:12.681Z,1019.04
2018-04-20T10:12:12.713Z,1019.10
2018-04-20T10:13:12.736Z,1019.07
2018-04-20T10:14:12.772Z,1019.03
2018-04-20T10:15:12.803Z,1019.05
2018-04-20T10:16:12.825Z,1019.04
2018-04-20T10:17:12.863Z,1019.01
2018-04-20T10:18:12.892Z,1018.94
2018-04-20T10:19:12.914Z,1018.99
2018-04-20T10:20:12.949Z,1018.95
2018-04-20T10:21:12.981Z,1018.89
2018-04-20T10:22:13.017Z,1018.92
2018-04-20T10:23:13.050Z,1018.94
2018-04-20T10:24:13.072Z,1018.88
2018-04-20T10:25:13.105Z,1018.86
2018-04-20T10:26:13.142Z,1018.84
2018-04-20T10:27:13.173Z,1018.84
2018-04-20T10:28:13.206Z,1018.87
2018-04-20T10:29:13.241Z,1018.81
2018-04-20T10:30:13.274Z,1018.79
2018-04-20T10:31:13.308Z,1018.82
2018-04-20T10:32:13.342Z,1018.78
2018-04-20T10:33:13.376Z,1018.89
2018-04-20T10:34:13.410Z,1018.92
2018-04-20T10:35:13.446Z,1018.90
2018-04-20T10:36:13.491Z,1018.82
2018-04-20T10:37:13.524Z,1018.81
2018-04-20T10:38:13.558Z,1018.80
2018-04-20T10:39:13.591Z,1018.80
2018-04-20T10:40:13.626Z,1018.79
2018-04-20T10:41:13.673Z,1018.74
2018-04-20T10:42:13.705Z,1018.77
2018-04-20T10:43:13.740Z,1018.76
2018-04-20T10:44:13.790Z,1018.64
2018-04-20T10:45:13.819Z,1018.64
2018-04-20T10:46:13.866Z,1018.67
2018-04-20T10:47:13.900Z,1018.65
2018-04-20T10:48:13.954Z,1018.61
2018-04-20T10:49:13.979Z,1018.61
2018-04-20T10:50:14.015Z,1018.61
2018-04-20T10:51:14.061Z,1018.59
2018-04-20T10:52:14.094Z,1018.58
2018-04-20T10:53:14.139Z,1018.55
2018-04-20T10:54:14.186Z,1018.62
2018-04-20T10:55:14.220Z,1018.57
2018-04-20T10:56:14.267Z,1018.58
2018-04-20T10:57:14.300Z,1018.58
2018-04-20T10:58:14.346Z,1018.54
2018-04-20T10:59:14.381Z,1018.50
2018-04-20T11:00:14.432Z,1018.51
2018-04-20T11:01:14.481Z,1018.48
2018-04-20T11:02:14.507Z,1018.52
2018-04-20T11:03:14.553Z,1018.52
2018-04-20T11:04:14.599Z,1018.50
2018-04-20T11:05:14.634Z,1018.48
2018-04-20T11:06:14.682Z,1018.43
2018-04-20T11:07:14.727Z,1018.39
2018-04-20T11:08:14.760Z,1018.42
2018-04-20T11:09:14.806Z,1018.44
2018-04-20T11:10:14.852Z,1018.38
2018-04-20T11:11:14.895Z,1018.36
2018-04-20T11:12:14.934Z,1018.39
2018-04-20T11:13:14.979Z,1018.38
2018-04-20T11:14:15.025Z,1018.42
2018-04-20T11:15:15.059Z,1018.40
2018-04-20T11:16:15.105Z,1018.40
2018-04-20T11:17:15.152Z,1018.33
2018-04-20T11:18:15.201Z,1018.39
2018-04-20T11:19:15.233Z,1018.41
2018-04-20T11:20:15.285Z,1018.33
2018-04-20T11:21:15.325Z,1018.33
2018-04-20T11:22:15.371Z,1018.34
2018-04-20T11:23:15.418Z,1018.36
2018-04-20T11:24:15.450Z,1018.32
2018-04-20T11:25:15.498Z,1018.26
2018-04-20T11:26:15.544Z,1018.30
2018-04-20T11:27:15.590Z,1018.26
2018-04-20T11:28:15.625Z,1018.25
2018-04-20T11:29:15.671Z,1018.26
2018-04-20T11:30:15.718Z,1018.27
2018-04-20T11:31:15.764Z,1018.22
2018-04-20T11:32:15.810Z,1018.23
2018-04-20T11:33:15.845Z,1018.25
2018-04-20T11:34:15.889Z,1018.24
2018-04-20T11:35:15.937Z,1018.26
2018-04-20T11:36:15.982Z,1018.27
2018-04-20T11:37:16.029Z,1018.26
2018-04-20T11:38:16.078Z,1018.25
2018-04-20T11:39:16.109Z,1018.23
2018-04-20T11:40:16.156Z,1018.23
2018-04-20T11:41:16.202Z,1018.20
2018-04-20T11:42:16.249Z,1018.19
2018-04-20T11:43:16.296Z,1018.13
2018-04-20T11:44:16.338Z,1018.11
2018-04-20T11:45:16.375Z,1018.09
2018-04-20T11:46:16.421Z,1018.07
2018-04-20T11:47:16.468Z,1018.04
2018-04-20T11:48:16.514Z,1018.02
2018-04-20T11:49:16.560Z,1018.07
2018-04-20T11:50:16.596Z,1018.11
2018-04-20T11:51:16.645Z,1018.07
2018-04-20T11:52:16.689Z,1018.11
2018-04-20T11:53:16.738Z,1018.14
2018-04-20T11:54:16.784Z,1018.05
2018-04-20T11:55:16.816Z,1018.09
2018-04-20T11:56:16.861Z,1018.03
2018-04-20T11:57:16.908Z,1018.04
2018-04-20T11:58:16.954Z,1017.99
2018-04-20T11:59:17.000Z,1017.98
2018-04-20T12:00:17.047Z,1018.00
2018-04-20T12:01:17.083Z,1017.93
2018-04-20T12:02:17.175Z,1017.98
2018-04-20T12:03:17.176Z,1017.97
2018-04-20T12:04:17.219Z,1017.90
2018-04-20T12:05:17.254Z,1017.96
2018-04-20T12:06:17.367Z,1017.93